Terminal Aerodrome Forecast
Issued by NWS

Home | Current Version | Previous Version | Text Only | Print | Product List | Glossary Off
Versions: 1 2 3 4 5 6 7 8 9 10 11 12 13 14 15 16

000
FTUS43 KABR 022100 AAA
TAFMBG
TAF AMD
KMBG 022114Z 0221/0318 19015G24KT P6SM VCSH SCT080
     FM030000 04005KT P6SM BKN090
     FM031200 36013KT P6SM BKN250=

USA.gov is the U.S. government's official web portal to all federal, state and local government web resources and services.